Time;durP1;ratioP1;P1;durP2;ratioP2;P2;SDS_P1;SDS_P2;PMS_P1;PMS_P2;Temp;Humidity;BMP_temperature;BMP_pressure;BME280_temperature;BME280_humidity;BME280_pressure;Samples;Min_cycle;Max_cycle;Signal;HPM_P1;HPM_P2
2022/12/02 00:02:13;;;;;;;37.38;16.15;;;;;;;1.16;75.67;102286.11;1822431;78;25984;-61
2022/12/02 00:04:40;;;;;;;35.73;16.17;;;;;;;1.17;75.88;102285.64;1810000;78;25744;-61
2022/12/02 00:07:15;;;;;;;29.27;16.95;;;;;;;1.20;76.09;102286.46;1824633;78;28104;-61
2022/12/02 00:09:43;;;;;;;32.95;16.57;;;;;;;1.24;76.13;102281.95;1828693;78;25866;-60
2022/12/02 00:12:21;;;;;;;38.67;16.52;;;;;;;1.27;76.11;102289.80;1828828;78;25750;-61
2022/12/02 00:14:56;;;;;;;32.83;16.87;;;;;;;1.30;76.02;102291.53;1828428;77;25733;-60
2022/12/02 00:17:24;;;;;;;36.28;16.37;;;;;;;1.34;76.15;102292.74;1828717;77;25510;-61
2022/12/02 00:19:52;;;;;;;31.17;15.48;;;;;;;1.38;76.36;102292.20;1828878;77;27498;-61
2022/12/02 00:22:19;;;;;;;34.23;16.02;;;;;;;1.44;76.42;102294.69;1828754;78;25742;-61
2022/12/02 00:24:46;;;;;;;30.85;15.78;;;;;;;1.45;76.01;102292.89;1812794;78;25667;-61
2022/12/02 00:27:12;;;;;;;32.53;17.02;;;;;;;1.44;75.88;102292.05;1827945;77;25787;-61
2022/12/02 00:29:39;;;;;;;33.33;16.50;;;;;;;1.42;75.75;102283.72;1823097;78;25943;-61
2022/12/02 00:32:06;;;;;;;37.70;16.65;;;;;;;1.39;75.43;102288.66;1822580;77;27739;-61
2022/12/02 00:34:33;;;;;;;31.75;17.27;;;;;;;1.35;75.34;102284.32;1822391;78;25739;-61
2022/12/02 00:37:00;;;;;;;35.43;17.70;;;;;;;1.30;75.32;102279.61;1821606;77;25702;-61
2022/12/02 00:39:26;;;;;;;30.68;15.83;;;;;;;1.27;75.35;102279.20;1816142;79;25794;-61
2022/12/02 00:41:53;;;;;;;37.98;16.70;;;;;;;1.24;75.19;102281.48;1816172;79;25801;-61
2022/12/02 00:47:06;;;;;;;32.30;16.20;;;;;;;1.19;75.37;102283.83;1815947;79;25753;-61
2022/12/02 00:49:33;;;;;;;36.50;15.95;;;;;;;1.17;75.60;102279.90;1821543;78;25791;-61
2022/12/02 00:52:00;;;;;;;29.37;16.23;;;;;;;1.16;75.66;102276.83;1821122;78;25771;-61
2022/12/02 00:54:27;;;;;;;34.03;15.68;;;;;;;1.17;75.80;102282.98;1811887;78;25876;-61
2022/12/02 00:56:53;;;;;;;33.70;15.35;;;;;;;1.15;75.99;102280.39;1807953;78;27329;-61
2022/12/02 00:59:20;;;;;;;32.85;16.40;;;;;;;1.16;76.12;102279.95;1808213;79;25782;-61
2022/12/02 01:01:47;;;;;;;34.85;15.58;;;;;;;1.19;76.20;102270.13;1792039;77;25714;-61
2022/12/02 01:04:14;;;;;;;30.25;15.18;;;;;;;1.20;76.13;102267.91;1786790;80;25842;-61
2022/12/02 01:06:41;;;;;;;47.98;15.95;;;;;;;1.21;76.27;102260.34;1786662;80;25792;-61
2022/12/02 01:09:08;;;;;;;30.52;16.30;;;;;;;1.22;76.23;102256.78;1786062;80;27467;-61
2022/12/02 01:11:36;;;;;;;38.73;15.65;;;;;;;1.24;76.26;102255.44;1786032;79;26145;-61
2022/12/02 01:14:03;;;;;;;30.20;15.63;;;;;;;1.24;76.33;102244.36;1786056;80;25892;-61
2022/12/02 01:16:30;;;;;;;37.03;15.43;;;;;;;1.25;76.26;102246.58;1786136;80;26423;-61
2022/12/02 01:18:57;;;;;;;33.45;17.00;;;;;;;1.23;76.25;102239.97;1812407;78;26115;-61
2022/12/02 01:21:24;;;;;;;35.10;16.25;;;;;;;1.23;76.29;102237.79;1787953;78;27459;-61
2022/12/02 01:23:51;;;;;;;29.40;17.40;;;;;;;1.20;76.27;102236.09;1786420;80;25717;-61
2022/12/02 01:26:18;;;;;;;40.17;17.82;;;;;;;1.21;76.32;102244.91;1786601;80;25773;-61
2022/12/02 01:28:45;;;;;;;33.70;16.93;;;;;;;1.21;76.42;102241.78;1799935;78;26748;-61
2022/12/02 01:31:13;;;;;;;34.45;17.30;;;;;;;1.23;76.30;102245.27;1816517;79;25709;-61
2022/12/02 01:33:41;;;;;;;32.73;17.40;;;;;;;1.24;75.98;102241.71;1816174;78;27625;-61
2022/12/02 01:36:08;;;;;;;34.18;16.50;;;;;;;1.21;76.02;102243.11;1816180;79;25733;-61
2022/12/02 01:38:35;;;;;;;39.80;17.90;;;;;;;1.22;76.08;102242.67;1816039;78;25825;-61
2022/12/02 01:41:03;;;;;;;35.58;16.05;;;;;;;1.22;76.26;102229.42;1816110;79;28011;-61
2022/12/02 01:43:30;;;;;;;37.75;16.57;;;;;;;1.23;76.38;102224.53;1816131;78;25745;-61
2022/12/02 01:45:58;;;;;;;30.82;14.90;;;;;;;1.21;76.28;102224.55;1815830;78;27448;-61
2022/12/02 01:48:29;;;;;;;34.78;14.95;;;;;;;1.22;76.41;102217.02;1816149;79;25686;-61
2022/12/02 01:50:57;;;;;;;33.48;15.15;;;;;;;1.19;76.42;102217.12;1816717;78;25742;-61
2022/12/02 01:53:24;;;;;;;33.30;15.13;;;;;;;1.13;76.55;102218.58;1817368;78;25806;-61
2022/12/02 01:55:51;;;;;;;34.05;16.30;;;;;;;1.07;76.55;102218.31;1789982;78;26188;-61
2022/12/02 01:58:23;;;;;;;29.50;15.15;;;;;;;1.03;76.87;102217.10;1821116;78;28270;-60
2022/12/02 02:00:51;;;;;;;33.33;15.28;;;;;;;1.03;76.84;102216.63;1820502;78;26505;-61
2022/12/02 02:03:18;;;;;;;30.02;15.18;;;;;;;1.05;77.10;102217.47;1788398;79;25760;-61
2022/12/02 02:05:45;;;;;;;33.08;16.57;;;;;;;1.11;77.31;102216.45;1816699;78;25793;-61
2022/12/02 02:08:13;;;;;;;31.30;15.25;;;;;;;1.12;77.16;102215.51;1816317;79;25852;-61
2022/12/02 02:10:43;;;;;;;33.67;14.13;;;;;;;1.17;77.24;102215.39;1816645;79;28193;-61
2022/12/02 02:13:14;;;;;;;28.57;16.52;;;;;;;1.16;76.89;102221.16;1816074;79;25643;-61
2022/12/02 02:15:43;;;;;;;28.65;15.28;;;;;;;1.15;76.79;102214.12;1816152;79;25691;-61
2022/12/02 02:18:12;;;;;;;32.42;14.47;;;;;;;1.12;76.61;102208.88;1815974;78;25804;-62
2022/12/02 02:20:40;;;;;;;30.60;13.68;;;;;;;1.13;76.67;102217.72;1816528;79;25786;-61
2022/12/02 02:23:13;;;;;;;29.50;13.25;;;;;;;1.14;76.69;102223.45;1784528;79;27387;-61
2022/12/02 02:25:48;;;;;;;22.80;13.00;;;;;;;1.16;76.50;102222.48;1816522;79;25729;-61
2022/12/02 02:28:17;;;;;;;24.07;12.93;;;;;;;1.15;76.36;102232.67;1816043;78;25690;-61
2022/12/02 02:30:44;;;;;;;24.05;12.00;;;;;;;1.16;76.50;102230.91;1816655;79;25729;-61
2022/12/02 02:33:14;;;;;;;24.00;11.93;;;;;;;1.18;76.56;102235.69;1816226;78;25788;-61
2022/12/02 02:35:44;;;;;;;28.55;11.35;;;;;;;1.20;76.54;102241.83;1818910;78;27530;-61
2022/12/02 02:38:18;;;;;;;32.03;12.23;;;;;;;1.23;76.71;102237.31;1822860;78;25881;-61
2022/12/02 02:40:46;;;;;;;22.05;10.50;;;;;;;1.30;76.74;102242.48;1822945;78;25821;-61
2022/12/02 02:43:15;;;;;;;24.43;12.18;;;;;;;1.35;76.86;102229.96;1822886;78;25950;-61
2022/12/02 02:45:43;;;;;;;23.15;10.45;;;;;;;1.38;76.52;102235.20;1802532;78;25711;-61
2022/12/02 02:48:13;;;;;;;25.95;11.08;;;;;;;1.39;76.08;102235.14;1802146;78;27439;-61
2022/12/02 02:50:43;;;;;;;23.40;10.63;;;;;;;1.37;75.79;102239.61;1822454;78;25746;-61
2022/12/02 02:53:13;;;;;;;20.43;10.98;;;;;;;1.37;75.96;102232.98;1821292;78;25760;-61
2022/12/02 02:55:41;;;;;;;26.33;11.55;;;;;;;1.38;75.83;102232.08;1779471;77;26435;-62
2022/12/02 02:58:16;;;;;;;24.43;10.65;;;;;;;1.34;75.88;102231.76;1811962;78;25744;-62
2022/12/02 03:00:56;;;;;;;24.50;10.95;;;;;;;1.30;75.57;102226.58;1818488;78;28277;-61
2022/12/02 03:03:28;;;;;;;28.10;10.60;;;;;;;1.25;75.29;102222.25;1816330;79;25729;-61
2022/12/02 03:05:56;;;;;;;19.82;10.35;;;;;;;1.19;75.03;102230.37;1816190;79;25706;-61
2022/12/02 03:08:25;;;;;;;28.77;13.85;;;;;;;1.15;75.16;102226.52;1816358;78;25745;-62
2022/12/02 03:10:54;;;;;;;30.75;12.63;;;;;;;1.07;75.33;102222.28;1816240;77;25462;-61
2022/12/02 03:13:22;;;;;;;25.48;11.95;;;;;;;1.09;75.58;102228.39;1815913;78;28689;-62
2022/12/02 03:15:50;;;;;;;21.80;11.65;;;;;;;1.12;75.79;102219.95;1816034;79;25721;-62
2022/12/02 03:18:17;;;;;;;23.25;11.88;;;;;;;1.13;75.83;102215.92;1816305;78;25693;-61
2022/12/02 03:20:45;;;;;;;21.23;12.13;;;;;;;1.17;76.01;102218.05;1816159;79;26466;-61
2022/12/02 03:23:12;;;;;;;27.82;12.88;;;;;;;1.19;76.02;102213.14;1816492;78;25730;-62
2022/12/02 03:25:39;;;;;;;27.02;12.55;;;;;;;1.20;76.17;102210.02;1816610;79;28208;-61
2022/12/02 03:28:06;;;;;;;21.60;11.60;;;;;;;1.23;76.21;102208.16;1816423;79;25793;-61
2022/12/02 03:30:33;;;;;;;26.95;13.45;;;;;;;1.24;76.30;102205.92;1816188;78;25683;-63
2022/12/02 03:33:00;;;;;;;27.17;12.18;;;;;;;1.30;76.48;102211.52;1816346;79;25788;-62
2022/12/02 03:35:28;;;;;;;27.27;13.00;;;;;;;1.29;76.10;102213.76;1816230;79;25748;-62
2022/12/02 03:37:55;;;;;;;24.32;12.93;;;;;;;1.27;76.17;102220.02;1816135;77;27519;-62
2022/12/02 03:40:22;;;;;;;24.67;13.32;;;;;;;1.21;76.01;102223.22;1815528;77;25778;-63
2022/12/02 03:42:49;;;;;;;23.35;13.38;;;;;;;1.19;76.05;102215.80;1816151;79;25675;-63
2022/12/02 03:45:17;;;;;;;24.52;13.68;;;;;;;1.18;76.10;102223.33;1816206;77;25775;-63
2022/12/02 03:47:45;;;;;;;26.40;13.28;;;;;;;1.18;76.17;102224.66;1816466;79;25962;-63
2022/12/02 03:50:13;;;;;;;22.48;13.15;;;;;;;1.19;76.04;102221.53;1816053;79;27033;-61
2022/12/02 03:52:40;;;;;;;33.98;12.90;;;;;;;1.20;75.98;102226.81;1816404;78;25757;-62
2022/12/02 03:55:10;;;;;;;26.37;13.18;;;;;;;1.21;75.71;102223.70;1811726;78;36107;-62
2022/12/02 03:57:39;;;;;;;25.37;12.03;;;;;;;1.22;75.93;102224.97;1811057;79;25759;-62
2022/12/02 04:00:08;;;;;;;24.95;12.65;;;;;;;1.22;75.94;102217.48;1829250;77;25738;-62
2022/12/02 04:02:37;;;;;;;24.10;12.55;;;;;;;1.21;75.72;102222.37;1844381;77;27621;-61
2022/12/02 04:05:05;;;;;;;28.70;13.20;;;;;;;1.24;75.77;102222.30;1816311;79;25283;-62
2022/12/02 04:07:32;;;;;;;20.77;10.30;;;;;;;1.25;75.75;102222.72;1816133;78;25741;-62
2022/12/02 04:09:59;;;;;;;24.55;10.53;;;;;;;1.23;75.65;102226.72;1822997;78;25863;-61
2022/12/02 04:12:26;;;;;;;19.07;10.05;;;;;;;1.23;75.71;102231.16;1822765;78;25938;-62
2022/12/02 04:14:52;;;;;;;26.23;9.33;;;;;;;1.23;75.45;102226.72;1823130;78;27640;-63
2022/12/02 04:17:19;;;;;;;22.15;9.93;;;;;;;1.21;75.54;102223.22;1822787;78;25457;-63
2022/12/02 04:19:46;;;;;;;25.00;9.88;;;;;;;1.16;75.04;102225.14;1822804;78;25699;-62
2022/12/02 04:22:13;;;;;;;20.05;9.38;;;;;;;1.11;74.97;102225.72;1822868;78;25769;-62
2022/12/02 04:24:39;;;;;;;19.60;9.13;;;;;;;1.11;75.11;102225.72;1787031;80;26426;-63
2022/12/02 04:27:06;;;;;;;21.37;9.95;;;;;;;1.12;75.17;102222.14;1786601;80;27631;-62
2022/12/02 04:29:34;;;;;;;16.37;9.33;;;;;;;1.11;75.36;102233.67;1786591;80;25778;-63
2022/12/02 04:32:01;;;;;;;24.98;9.90;;;;;;;1.14;75.26;102232.72;1784991;80;25786;-62
2022/12/02 04:34:28;;;;;;;22.48;9.43;;;;;;;1.11;75.15;102233.67;1784672;80;27922;-62
2022/12/02 04:36:55;;;;;;;18.15;8.98;;;;;;;1.11;74.96;102232.78;1761635;81;25901;-62
2022/12/02 04:39:22;;;;;;;18.35;9.48;;;;;;;1.05;74.50;102237.34;1759889;80;27582;-62
2022/12/02 04:41:48;;;;;;;18.70;9.25;;;;;;;1.01;74.75;102242.77;1755737;81;25804;-62
2022/12/02 04:44:16;;;;;;;22.70;10.23;;;;;;;0.97;74.74;102239.76;1756044;81;25787;-62
2022/12/02 04:46:42;;;;;;;19.98;8.73;;;;;;;0.93;74.76;102247.80;1755852;81;25822;-61
2022/12/02 04:49:10;;;;;;;20.97;9.58;;;;;;;0.95;74.85;102245.11;1756018;81;25735;-60
2022/12/02 04:51:37;;;;;;;16.93;9.63;;;;;;;0.90;74.81;102253.16;1756293;81;27491;-62
2022/12/02 04:54:03;;;;;;;21.42;10.23;;;;;;;0.92;75.14;102251.80;1770629;80;25741;-62
2022/12/02 04:56:30;;;;;;;18.42;10.38;;;;;;;0.95;75.22;102258.36;1775339;80;25816;-62
2022/12/02 04:59:02;;;;;;;20.97;9.98;;;;;;;0.97;75.12;102257.88;1762240;80;25876;-62
2022/12/02 05:01:28;;;;;;;24.63;9.93;;;;;;;0.93;75.10;102256.19;1755057;81;25778;-62
2022/12/02 05:03:55;;;;;;;22.05;9.75;;;;;;;0.95;75.24;102257.03;1755833;81;27905;-62
2022/12/02 05:06:22;;;;;;;24.75;9.70;;;;;;;1.01;75.58;102256.02;1757962;80;25902;-62
2022/12/02 05:08:49;;;;;;;19.15;9.30;;;;;;;1.04;75.64;102255.48;1758920;81;25783;-62
2022/12/02 05:11:18;;;;;;;26.97;11.60;;;;;;;1.09;75.71;102254.04;1758838;81;25812;-62
2022/12/02 05:13:45;;;;;;;23.00;10.50;;;;;;;1.13;75.36;102254.36;1758800;81;25711;-62
2022/12/02 05:16:14;;;;;;;21.95;10.08;;;;;;;1.14;75.09;102259.23;1758755;81;29696;-62
2022/12/02 05:18:41;;;;;;;23.60;9.53;;;;;;;1.12;74.54;102259.71;1758552;81;25790;-62
2022/12/02 05:21:08;;;;;;;23.12;10.63;;;;;;;1.06;74.79;102261.63;1759032;81;25751;-60
2022/12/02 05:23:38;;;;;;;21.40;9.43;;;;;;;1.08;75.03;102255.80;1769383;80;25635;-60
2022/12/02 05:26:05;;;;;;;15.98;8.60;;;;;;;1.10;74.47;102250.48;1775721;80;25799;-61
2022/12/02 05:28:32;;;;;;;19.95;10.13;;;;;;;1.06;74.56;102256.76;1775264;80;27482;-61
2022/12/02 05:30:59;;;;;;;20.48;10.18;;;;;;;1.06;74.41;102257.64;1775412;80;26370;-60
2022/12/02 05:33:28;;;;;;;22.98;9.15;;;;;;;1.07;74.60;102251.88;1749056;80;25780;-60
2022/12/02 05:35:54;;;;;;;26.25;10.50;;;;;;;1.06;74.32;102252.78;1775397;80;25793;-62
2022/12/02 05:38:22;;;;;;;19.98;9.88;;;;;;;1.01;74.40;102256.87;1775465;80;25787;-61
2022/12/02 05:40:52;;;;;;;18.55;10.63;;;;;;;1.03;74.57;102255.53;1791368;79;27477;-62
2022/12/02 05:43:24;;;;;;;25.57;12.33;;;;;;;1.02;74.52;102256.44;1767492;80;25854;-62
2022/12/02 05:45:56;;;;;;;20.62;11.25;;;;;;;1.02;74.61;102259.08;1794362;80;25513;-61
2022/12/02 05:48:25;;;;;;;24.63;10.75;;;;;;;1.01;74.79;102266.61;1793187;79;25787;-61
2022/12/02 05:50:53;;;;;;;25.25;11.80;;;;;;;1.03;74.87;102271.43;1794405;80;26104;-61
2022/12/02 05:53:27;;;;;;;26.40;12.88;;;;;;;1.08;75.04;102269.52;1794246;78;27473;-62
2022/12/02 05:55:58;;;;;;;21.97;11.45;;;;;;;1.09;75.01;102268.62;1795430;79;25842;-62
2022/12/02 05:58:26;;;;;;;30.97;13.65;;;;;;;1.13;75.13;102268.09;1795525;79;25671;-62
2022/12/02 06:00:57;;;;;;;26.95;13.35;;;;;;;1.18;75.42;102267.50;1795939;79;25769;-62
2022/12/02 06:03:24;;;;;;;27.35;12.50;;;;;;;1.23;75.42;102266.48;1795687;79;25759;-62
2022/12/02 06:05:53;;;;;;;20.27;11.85;;;;;;;1.25;75.42;102267.32;1795564;79;27433;-62
2022/12/02 06:08:25;;;;;;;18.62;10.10;;;;;;;1.31;75.48;102261.43;1768755;79;25856;-61
2022/12/02 06:11:00;;;;;;;26.90;10.90;;;;;;;1.34;75.47;102261.36;1769197;79;25763;-61
2022/12/02 06:13:30;;;;;;;20.92;12.10;;;;;;;1.36;75.27;102260.41;1793709;79;26336;-61
2022/12/02 06:15:59;;;;;;;150.87;18.10;;;;;;;1.35;75.16;102259.12;1794270;80;25874;-61
2022/12/02 06:18:32;;;;;;;26.37;11.63;;;;;;;1.37;75.05;102268.78;1793729;78;27619;-61
2022/12/02 06:21:07;;;;;;;29.03;12.87;;;;;;;1.36;74.84;102266.18;1793657;79;25477;-61
2022/12/02 06:23:36;;;;;;;25.00;13.30;;;;;;;1.33;74.62;102266.25;1792467;80;25671;-61
2022/12/02 06:26:02;;;;;;;24.80;13.18;;;;;;;1.30;74.72;102263.70;1792979;79;26023;-61
2022/12/02 06:28:36;;;;;;;25.70;12.13;;;;;;;1.31;74.57;102265.41;1793717;80;26248;-61
2022/12/02 06:31:32;;;;;;;26.20;12.98;;;;;;;1.31;74.46;102261.43;1793980;80;27489;-61
2022/12/02 06:34:11;;;;;;;25.30;10.75;;;;;;;1.31;74.54;102264.97;1793348;79;25933;-62
2022/12/02 06:36:39;;;;;;;24.20;11.90;;;;;;;1.29;74.48;102267.25;1787893;80;25667;-61
2022/12/02 06:39:21;;;;;;;23.75;11.78;;;;;;;1.28;74.49;102268.16;1794336;79;25888;-62
2022/12/02 06:41:51;;;;;;;24.12;10.90;;;;;;;1.30;74.52;102265.88;1789827;80;25766;-61
2022/12/02 06:47:38;;;;;;;21.80;10.23;;;;;;;1.35;74.54;102257.80;1789760;80;25916;-62
2022/12/02 06:50:22;;;;;;;24.15;11.63;;;;;;;1.39;74.52;102246.22;1789570;80;25535;-62
2022/12/02 06:52:50;;;;;;;32.63;11.55;;;;;;;1.37;74.43;102251.55;1791918;79;26534;-62
2022/12/02 06:55:35;;;;;;;29.90;10.90;;;;;;;1.36;74.43;102258.22;1808763;79;25468;-62
2022/12/02 06:58:34;;;;;;;21.68;11.73;;;;;;;1.38;74.55;102258.59;1801670;79;27438;-62
2022/12/02 07:01:20;;;;;;;18.17;10.32;;;;;;;1.39;74.40;102250.20;1788043;80;25723;-62
2022/12/02 07:04:10;;;;;;;20.80;11.55;;;;;;;1.47;74.12;102249.98;1787904;78;25758;-61
2022/12/02 07:06:44;;;;;;;26.15;11.70;;;;;;;1.39;73.80;102266.11;1788084;80;25929;-61
2022/12/02 07:09:27;;;;;;;24.95;11.93;;;;;;;1.43;74.22;102265.57;1788361;78;25942;-61
2022/12/02 07:11:56;;;;;;;24.47;11.05;;;;;;;1.46;74.30;102261.05;1785895;80;27620;-61
2022/12/02 07:14:34;;;;;;;33.08;11.12;;;;;;;1.52;73.74;102258.70;1789879;80;25896;-61
2022/12/02 07:17:09;;;;;;;22.93;11.10;;;;;;;1.51;73.56;102267.09;1788623;80;25766;-61
2022/12/02 07:19:40;;;;;;;21.50;10.75;;;;;;;1.51;73.59;102267.56;1781585;80;25772;-61
2022/12/02 07:22:17;;;;;;;20.52;10.60;;;;;;;1.54;73.74;102265.70;1788164;80;25619;-62
2022/12/02 07:24:52;;;;;;;21.35;9.80;;;;;;;1.61;74.03;102266.84;1788052;80;27058;-62
2022/12/02 07:27:27;;;;;;;24.12;10.25;;;;;;;1.67;73.78;102268.00;1787056;80;26070;-61
2022/12/02 07:29:55;;;;;;;20.48;8.93;;;;;;;1.70;73.76;102268.78;1787963;80;25789;-61
2022/12/02 07:32:22;;;;;;;18.25;9.28;;;;;;;1.80;73.87;102273.84;1787027;78;26775;-61
2022/12/02 07:34:49;;;;;;;23.40;8.80;;;;;;;1.82;73.04;102273.34;1787065;80;25809;-61
2022/12/02 07:37:17;;;;;;;16.82;8.83;;;;;;;1.85;72.42;102278.58;1788112;80;28406;-61
2022/12/02 07:39:46;;;;;;;15.65;8.70;;;;;;;1.82;72.80;102275.56;1785404;78;26188;-61
2022/12/02 07:42:13;;;;;;;17.67;8.40;;;;;;;1.86;72.80;102274.55;1787325;80;25782;-61
2022/12/02 07:44:40;;;;;;;17.23;8.65;;;;;;;1.94;72.68;102273.45;1788092;80;25885;-61
2022/12/02 07:47:07;;;;;;;20.00;9.60;;;;;;;2.00;72.44;102278.14;1787692;78;25810;-61
2022/12/02 07:49:35;;;;;;;18.32;8.98;;;;;;;2.03;72.59;102274.52;1789504;80;27477;-63
2022/12/02 07:52:04;;;;;;;18.92;9.15;;;;;;;2.06;71.42;102268.28;1787007;80;25734;-62
2022/12/02 07:54:32;;;;;;;16.15;9.55;;;;;;;2.07;71.63;102267.34;1791414;79;25735;-62
2022/12/02 07:56:59;;;;;;;26.07;9.43;;;;;;;2.10;71.49;102271.24;1789863;80;25905;-62
2022/12/02 07:59:26;;;;;;;20.60;9.15;;;;;;;2.13;70.87;102276.00;1789617;80;25794;-62
2022/12/02 08:01:56;;;;;;;21.97;9.60;;;;;;;2.13;70.13;102272.02;1789555;80;27618;-62
2022/12/02 08:04:25;;;;;;;18.62;8.63;;;;;;;2.09;70.17;102274.37;1758143;80;26438;-62
2022/12/02 08:06:52;;;;;;;19.00;9.93;;;;;;;2.07;70.76;102273.53;1779810;78;25573;-62
2022/12/02 08:09:19;;;;;;;24.40;9.23;;;;;;;2.11;70.55;102271.19;1778403;80;25851;-62
2022/12/02 08:11:47;;;;;;;23.20;10.08;;;;;;;2.14;70.39;102275.09;1787343;80;25694;-62
2022/12/02 08:14:14;;;;;;;18.00;9.03;;;;;;;2.20;70.87;102275.38;1753747;80;27490;-62
2022/12/02 08:16:41;;;;;;;30.65;9.33;;;;;;;2.33;70.63;102277.21;1787809;79;25703;-62
2022/12/02 08:19:14;;;;;;;20.50;9.75;;;;;;;2.39;70.69;102275.69;1786966;79;25536;-62
2022/12/02 08:21:41;;;;;;;19.40;8.88;;;;;;;2.50;70.78;102274.91;1778876;79;25807;-62
2022/12/02 08:24:08;;;;;;;25.23;9.35;;;;;;;2.64;70.80;102274.96;1766529;79;26112;-63
2022/12/02 08:26:35;;;;;;;20.43;9.23;;;;;;;2.77;69.61;102275.45;1765601;81;27457;-63
2022/12/02 08:29:03;;;;;;;18.85;9.20;;;;;;;2.76;68.97;102271.90;1768929;80;25778;-61
2022/12/02 08:31:30;;;;;;;18.75;8.90;;;;;;;2.84;69.30;102281.41;1787121;80;25694;-62
2022/12/02 08:33:57;;;;;;;22.52;9.68;;;;;;;2.86;68.80;102269.84;1787483;80;26474;-61
2022/12/02 08:36:24;;;;;;;29.98;9.38;;;;;;;2.88;68.31;102265.79;1777200;79;25829;-62
2022/12/02 08:38:51;;;;;;;24.15;10.43;;;;;;;2.92;68.49;102267.41;1766606;80;27199;-61
2022/12/02 08:41:20;;;;;;;27.48;11.63;;;;;;;2.92;68.64;102266.97;1772093;80;25826;-61
2022/12/02 08:43:47;;;;;;;24.57;9.73;;;;;;;2.95;69.17;102272.20;1784424;80;25871;-61
2022/12/02 08:46:16;;;;;;;21.48;9.93;;;;;;;2.98;68.43;102270.75;1784481;80;25931;-61
2022/12/02 08:48:42;;;;;;;27.67;10.10;;;;;;;2.98;68.08;102267.23;1780799;80;25894;-60
2022/12/02 08:51:11;;;;;;;31.62;10.45;;;;;;;2.98;68.55;102261.92;1778336;80;27489;-62
2022/12/02 08:53:38;;;;;;;28.00;9.58;;;;;;;3.01;68.48;102264.93;1775935;79;25766;-61
2022/12/02 08:56:05;;;;;;;28.60;10.90;;;;;;;3.00;67.43;102260.08;1764705;81;25799;-63
2022/12/02 08:58:37;;;;;;;30.37;10.65;;;;;;;2.94;67.81;102261.59;1760887;81;25821;-62
2022/12/02 09:01:08;;;;;;;27.30;10.38;;;;;;;2.95;67.94;102261.56;1801486;79;25794;-62
2022/12/02 09:03:37;;;;;;;20.25;11.00;;;;;;;2.93;67.16;102259.85;1772891;80;27635;-62
2022/12/02 09:06:07;;;;;;;41.05;11.83;;;;;;;2.86;67.67;102261.86;1766300;80;25726;-61
2022/12/02 09:08:34;;;;;;;37.10;10.60;;;;;;;2.80;67.96;102258.94;1761118;81;25711;-61
2022/12/02 09:11:01;;;;;;;34.10;10.53;;;;;;;2.85;68.48;102260.13;1766198;80;25802;-61
2022/12/02 09:13:30;;;;;;;31.97;11.68;;;;;;;2.92;68.23;102264.75;1792716;80;26381;-62
2022/12/02 09:15:56;;;;;;;41.28;11.18;;;;;;;2.94;68.46;102257.61;1773547;79;28079;-61
2022/12/02 09:18:24;;;;;;;48.30;10.65;;;;;;;2.93;67.68;102256.75;1770235;81;25882;-63
2022/12/02 09:20:50;;;;;;;28.70;10.65;;;;;;;2.92;68.30;102255.45;1774975;80;25795;-64
2022/12/02 09:23:17;;;;;;;26.12;9.65;;;;;;;2.96;68.21;102249.98;1784335;80;25954;-63
2022/12/02 09:25:43;;;;;;;22.17;9.88;;;;;;;3.01;68.77;102241.85;1784538;79;26072;-62
2022/12/02 09:28:10;;;;;;;26.97;10.35;;;;;;;3.13;68.57;102244.11;1784342;80;27475;-63
2022/12/02 09:30:37;;;;;;;26.12;10.95;;;;;;;3.18;68.37;102246.63;1784198;80;26147;-62
2022/12/02 09:33:04;;;;;;;26.60;10.35;;;;;;;3.22;68.61;102238.08;1784274;80;25759;-62
2022/12/02 09:35:30;;;;;;;30.10;11.85;;;;;;;3.27;67.97;102237.00;1784269;80;25780;-62
2022/12/02 09:37:58;;;;;;;31.75;14.45;;;;;;;3.33;67.61;102233.27;1789488;80;25834;-62
2022/12/02 09:40:25;;;;;;;24.37;11.85;;;;;;;3.37;67.03;102232.70;1803295;79;29595;-63
2022/12/02 09:42:52;;;;;;;30.50;11.63;;;;;;;3.37;67.15;102233.55;1792701;78;26488;-61
2022/12/02 09:45:19;;;;;;;19.67;10.43;;;;;;;3.36;66.72;102227.81;1763965;80;25775;-61
2022/12/02 09:47:46;;;;;;;23.75;11.83;;;;;;;3.34;66.98;102226.14;1790342;80;25805;-61
2022/12/02 09:50:16;;;;;;;20.68;10.32;;;;;;;3.31;67.33;102223.13;1763971;79;25718;-62
2022/12/02 09:52:44;;;;;;;25.17;10.55;;;;;;;3.31;66.30;102220.47;1784334;80;27071;-61
2022/12/02 09:55:16;;;;;;;19.45;9.43;;;;;;;3.27;66.72;102218.86;1774957;79;25803;-61
2022/12/02 09:57:44;;;;;;;16.65;8.70;;;;;;;3.25;66.47;102216.70;1781732;80;25871;-61
2022/12/02 10:00:19;;;;;;;25.68;9.80;;;;;;;3.22;66.60;102215.47;1765289;80;25838;-61
2022/12/02 10:02:53;;;;;;;17.55;9.95;;;;;;;3.21;66.89;102209.73;1749906;80;26091;-62
2022/12/02 10:05:27;;;;;;;23.83;9.48;;;;;;;3.25;66.27;102216.70;1747108;82;27547;-61
2022/12/02 10:07:58;;;;;;;18.40;9.13;;;;;;;3.24;65.50;102217.63;1747815;81;25413;-62
2022/12/02 10:10:31;;;;;;;23.42;9.85;;;;;;;3.25;65.46;102219.36;1748862;80;26007;-62
2022/12/02 10:12:57;;;;;;;23.62;10.23;;;;;;;3.19;65.71;102220.44;1769153;80;26602;-62
2022/12/02 10:15:27;;;;;;;18.52;9.20;;;;;;;3.10;66.15;102220.28;1778971;80;25635;-62
2022/12/02 10:17:56;;;;;;;21.35;8.75;;;;;;;3.09;66.58;102222.52;1778870;80;27514;-62
2022/12/02 10:20:26;;;;;;;18.15;8.90;;;;;;;3.09;66.41;102222.52;1777493;80;25790;-62
2022/12/02 10:23:14;;;;;;;22.65;9.28;;;;;;;3.05;66.74;102214.26;1787758;80;25825;-62
2022/12/02 10:25:45;;;;;;;26.65;8.78;;;;;;;3.08;67.22;102214.16;1787838;80;26673;-62
2022/12/02 10:28:31;;;;;;;23.98;8.50;;;;;;;3.11;66.36;102214.52;1814663;79;25944;-62
2022/12/02 10:31:04;;;;;;;19.85;9.03;;;;;;;3.01;66.63;102213.09;1767497;80;27474;-61
2022/12/02 10:33:35;;;;;;;18.65;8.78;;;;;;;2.95;66.84;102213.72;1788505;79;25753;-62
2022/12/02 10:36:03;;;;;;;21.82;9.03;;;;;;;2.89;67.03;102216.55;1800760;78;25753;-61
2022/12/02 10:38:40;;;;;;;18.35;8.78;;;;;;;2.89;67.09;102213.04;1762508;79;25727;-63
2022/12/02 10:41:23;;;;;;;30.37;9.23;;;;;;;2.87;67.11;102217.53;1763007;78;25862;-62
2022/12/02 10:44:03;;;;;;;26.35;8.68;;;;;;;2.83;66.69;102215.44;1786438;80;27469;-63
2022/12/02 10:46:33;;;;;;;24.92;8.88;;;;;;;2.78;66.93;102218.25;1784398;80;27864;-61
2022/12/02 10:49:29;;;;;;;28.98;9.38;;;;;;;2.77;67.11;102203.22;1786662;79;25710;-61
2022/12/02 10:52:01;;;;;;;21.55;8.83;;;;;;;2.80;67.53;102213.75;1786380;80;25810;-61
2022/12/02 10:54:34;;;;;;;22.32;8.73;;;;;;;2.85;67.09;102214.05;1775025;80;25645;-61
2022/12/02 10:57:03;;;;;;;18.02;9.13;;;;;;;2.87;67.19;102217.53;1774978;77;27481;-61
2022/12/02 10:59:34;;;;;;;21.97;8.90;;;;;;;2.83;67.30;102220.75;1769625;80;25842;-62
2022/12/02 11:02:04;;;;;;;25.50;8.63;;;;;;;2.82;67.58;102217.68;1759001;81;26593;-61
2022/12/02 11:04:33;;;;;;;20.48;9.13;;;;;;;2.85;67.60;102213.61;1756869;80;26461;-62
2022/12/02 11:06:59;;;;;;;17.25;8.58;;;;;;;2.88;66.88;102212.63;1760046;80;26089;-62
2022/12/02 11:09:26;;;;;;;33.38;9.88;;;;;;;2.84;66.95;102215.85;1772992;80;27299;-62
2022/12/02 11:11:54;;;;;;;30.17;9.98;;;;;;;2.79;67.10;102212.45;1772980;80;25843;-63
2022/12/02 11:14:43;;;;;;;22.70;9.95;;;;;;;2.76;67.44;102221.41;1740876;80;25781;-62
2022/12/02 11:17:16;;;;;;;20.92;9.68;;;;;;;2.78;67.89;102218.72;1751567;80;26466;-61
2022/12/02 11:19:47;;;;;;;27.17;9.13;;;;;;;2.78;68.08;102216.91;1739882;82;25756;-62
2022/12/02 11:23:00;;;;;;;24.12;10.00;;;;;;;2.80;67.78;102220.84;1735551;82;25827;-62
2022/12/02 11:25:49;;;;;;;27.90;9.48;;;;;;;2.74;67.71;102213.08;1681834;83;25937;-62
2022/12/02 11:28:31;;;;;;;23.50;9.35;;;;;;;2.70;68.07;102210.98;1705123;84;25872;-62
2022/12/02 11:31:20;;;;;;;18.73;9.33;;;;;;;2.74;68.22;102215.73;1745282;80;25865;-62
2022/12/02 11:34:00;;;;;;;21.95;9.80;;;;;;;2.74;68.23;102213.08;1759061;81;25723;-61
2022/12/02 11:36:29;;;;;;;19.92;9.70;;;;;;;2.81;68.78;102214.17;1765966;80;27502;-62
2022/12/02 11:39:08;;;;;;;27.85;9.65;;;;;;;2.85;68.40;102213.61;1772943;80;25750;-61